sensor_id;sensor_type;location;lat;lon;timestamp;pressure;altitude;pressure_sealevel;temperature;humidity
58662;BME280;44432;49.786;22.760;2023-09-07T00:01:41;100270.73;;;12.27;86.06
58662;BME280;44432;49.786;22.760;2023-09-07T00:04:12;100272.88;;;12.24;86.24
58662;BME280;44432;49.786;22.760;2023-09-07T00:06:43;100268.87;;;12.20;86.36
58662;BME280;44432;49.786;22.760;2023-09-07T00:09:14;100272.41;;;12.19;86.29
58662;BME280;44432;49.786;22.760;2023-09-07T00:11:45;100266.83;;;12.18;86.50
58662;BME280;44432;49.786;22.760;2023-09-07T00:14:16;100268.45;;;12.16;86.80
58662;BME280;44432;49.786;22.760;2023-09-07T00:16:46;100268.93;;;12.14;86.59
58662;BME280;44432;49.786;22.760;2023-09-07T00:19:17;100269.05;;;12.13;86.59
58662;BME280;44432;49.786;22.760;2023-09-07T00:21:47;100269.41;;;12.09;86.66
58662;BME280;44432;49.786;22.760;2023-09-07T00:24:21;100271.80;;;12.07;86.87
58662;BME280;44432;49.786;22.760;2023-09-07T00:26:52;100272.15;;;12.06;86.81
58662;BME280;44432;49.786;22.760;2023-09-07T00:29:23;100271.70;;;12.04;86.95
58662;BME280;44432;49.786;22.760;2023-09-07T00:31:54;100273.56;;;12.02;86.92
58662;BME280;44432;49.786;22.760;2023-09-07T00:34:24;100271.65;;;12.01;87.08
58662;BME280;44432;49.786;22.760;2023-09-07T00:36:56;100271.36;;;12.00;87.01
58662;BME280;44432;49.786;22.760;2023-09-07T00:39:27;100272.61;;;11.99;87.18
58662;BME280;44432;49.786;22.760;2023-09-07T00:41:58;100271.19;;;11.97;87.32
58662;BME280;44432;49.786;22.760;2023-09-07T00:44:28;100266.01;;;11.97;87.31
58662;BME280;44432;49.786;22.760;2023-09-07T00:46:59;100265.35;;;11.95;87.32
58662;BME280;44432;49.786;22.760;2023-09-07T00:49:30;100268.40;;;11.94;87.49
58662;BME280;44432;49.786;22.760;2023-09-07T00:52:01;100271.82;;;11.94;87.53
58662;BME280;44432;49.786;22.760;2023-09-07T00:54:31;100272.17;;;11.93;87.47
58662;BME280;44432;49.786;22.760;2023-09-07T00:57:04;100270.26;;;11.91;87.60
58662;BME280;44432;49.786;22.760;2023-09-07T00:59:35;100269.64;;;11.89;87.66
58662;BME280;44432;49.786;22.760;2023-09-07T01:02:06;100270.61;;;11.87;87.72
58662;BME280;44432;49.786;22.760;2023-09-07T01:04:37;100275.08;;;11.85;87.88
58662;BME280;44432;49.786;22.760;2023-09-07T01:07:12;100274.70;;;11.83;88.05
58662;BME280;44432;49.786;22.760;2023-09-07T01:09:46;100274.69;;;11.81;88.21
58662;BME280;44432;49.786;22.760;2023-09-07T01:12:19;100275.45;;;11.81;88.14
58662;BME280;44432;49.786;22.760;2023-09-07T01:14:50;100273.75;;;11.80;88.26
58662;BME280;44432;49.786;22.760;2023-09-07T01:17:23;100272.07;;;11.79;88.33
58662;BME280;44432;49.786;22.760;2023-09-07T01:19:54;100270.48;;;11.78;88.23
58662;BME280;44432;49.786;22.760;2023-09-07T01:22:26;100267.73;;;11.77;88.24
58662;BME280;44432;49.786;22.760;2023-09-07T01:24:57;100267.65;;;11.76;88.15
58662;BME280;44432;49.786;22.760;2023-09-07T01:27:29;100264.95;;;11.76;88.22
58662;BME280;44432;49.786;22.760;2023-09-07T01:30:00;100268.80;;;11.74;88.37
58662;BME280;44432;49.786;22.760;2023-09-07T01:32:32;100266.44;;;11.72;88.38
58662;BME280;44432;49.786;22.760;2023-09-07T01:35:04;100273.27;;;11.70;88.10
58662;BME280;44432;49.786;22.760;2023-09-07T01:37:36;100272.51;;;11.68;88.46
58662;BME280;44432;49.786;22.760;2023-09-07T01:40:08;100274.16;;;11.66;88.20
58662;BME280;44432;49.786;22.760;2023-09-07T01:42:39;100274.61;;;11.64;88.50
58662;BME280;44432;49.786;22.760;2023-09-07T01:45:12;100270.27;;;11.62;88.47
58662;BME280;44432;49.786;22.760;2023-09-07T01:47:43;100275.07;;;11.60;88.66
58662;BME280;44432;49.786;22.760;2023-09-07T01:50:14;100273.06;;;11.58;88.56
58662;BME280;44432;49.786;22.760;2023-09-07T01:52:47;100274.77;;;11.57;88.63
58662;BME280;44432;49.786;22.760;2023-09-07T01:55:18;100274.91;;;11.55;88.68
58662;BME280;44432;49.786;22.760;2023-09-07T01:57:49;100273.92;;;11.53;88.62
58662;BME280;44432;49.786;22.760;2023-09-07T02:00:20;100275.38;;;11.51;88.89
58662;BME280;44432;49.786;22.760;2023-09-07T02:02:51;100273.38;;;11.50;88.82
58662;BME280;44432;49.786;22.760;2023-09-07T02:05:22;100273.28;;;11.48;88.90
58662;BME280;44432;49.786;22.760;2023-09-07T02:07:52;100271.24;;;11.45;88.72
58662;BME280;44432;49.786;22.760;2023-09-07T02:10:23;100273.12;;;11.46;88.92
58662;BME280;44432;49.786;22.760;2023-09-07T02:12:54;100268.42;;;11.44;88.94
58662;BME280;44432;49.786;22.760;2023-09-07T02:15:26;100265.63;;;11.43;88.91
58662;BME280;44432;49.786;22.760;2023-09-07T02:17:57;100266.77;;;11.41;88.97
58662;BME280;44432;49.786;22.760;2023-09-07T02:20:28;100271.55;;;11.39;89.02
58662;BME280;44432;49.786;22.760;2023-09-07T02:22:58;100271.27;;;11.37;89.00
58662;BME280;44432;49.786;22.760;2023-09-07T02:25:29;100270.39;;;11.36;89.04
58662;BME280;44432;49.786;22.760;2023-09-07T02:28:00;100272.70;;;11.35;88.90
58662;BME280;44432;49.786;22.760;2023-09-07T02:30:30;100273.59;;;11.33;88.99
58662;BME280;44432;49.786;22.760;2023-09-07T02:33:02;100272.27;;;11.32;89.11
58662;BME280;44432;49.786;22.760;2023-09-07T02:35:33;100269.01;;;11.30;89.03
58662;BME280;44432;49.786;22.760;2023-09-07T02:38:05;100271.53;;;11.30;89.01
58662;BME280;44432;49.786;22.760;2023-09-07T02:40:41;100268.98;;;11.25;89.21
58662;BME280;44432;49.786;22.760;2023-09-07T02:43:12;100270.84;;;11.26;89.02
58662;BME280;44432;49.786;22.760;2023-09-07T02:45:43;100266.32;;;11.24;89.22
58662;BME280;44432;49.786;22.760;2023-09-07T02:48:14;100268.20;;;11.21;89.13
58662;BME280;44432;49.786;22.760;2023-09-07T02:50:44;100268.66;;;11.22;89.30
58662;BME280;44432;49.786;22.760;2023-09-07T02:53:18;100269.23;;;11.22;89.27
58662;BME280;44432;49.786;22.760;2023-09-07T02:55:49;100264.67;;;11.21;89.44
58662;BME280;44432;49.786;22.760;2023-09-07T02:58:20;100265.77;;;11.21;89.40
58662;BME280;44432;49.786;22.760;2023-09-07T03:00:50;100265.23;;;11.21;89.45
58662;BME280;44432;49.786;22.760;2023-09-07T03:03:22;100265.92;;;11.20;89.40
58662;BME280;44432;49.786;22.760;2023-09-07T03:05:53;100261.48;;;11.19;89.42
58662;BME280;44432;49.786;22.760;2023-09-07T03:08:24;100260.89;;;11.16;89.39
58662;BME280;44432;49.786;22.760;2023-09-07T03:10:55;100261.52;;;11.14;89.41
58662;BME280;44432;49.786;22.760;2023-09-07T03:13:26;100259.39;;;11.11;89.41
58662;BME280;44432;49.786;22.760;2023-09-07T03:15:57;100262.02;;;11.09;89.27
58662;BME280;44432;49.786;22.760;2023-09-07T03:18:28;100265.52;;;11.06;89.28
58662;BME280;44432;49.786;22.760;2023-09-07T03:21:01;100271.24;;;11.04;89.46
58662;BME280;44432;49.786;22.760;2023-09-07T03:23:34;100273.68;;;11.03;89.58
58662;BME280;44432;49.786;22.760;2023-09-07T03:26:05;100276.31;;;11.01;89.61
58662;BME280;44432;49.786;22.760;2023-09-07T03:28:36;100276.90;;;11.00;89.54
58662;BME280;44432;49.786;22.760;2023-09-07T03:31:08;100276.04;;;10.98;89.46
58662;BME280;44432;49.786;22.760;2023-09-07T03:33:39;100282.77;;;10.97;89.39
58662;BME280;44432;49.786;22.760;2023-09-07T03:36:09;100281.73;;;10.95;89.55
58662;BME280;44432;49.786;22.760;2023-09-07T03:38:43;100283.79;;;10.93;89.34
58662;BME280;44432;49.786;22.760;2023-09-07T03:41:14;100285.04;;;10.91;89.64
58662;BME280;44432;49.786;22.760;2023-09-07T03:43:45;100286.48;;;10.89;89.70
58662;BME280;44432;49.786;22.760;2023-09-07T03:46:15;100283.96;;;10.89;89.72
58662;BME280;44432;49.786;22.760;2023-09-07T03:48:46;100285.32;;;10.86;89.56
58662;BME280;44432;49.786;22.760;2023-09-07T03:51:17;100283.11;;;10.85;89.65
58662;BME280;44432;49.786;22.760;2023-09-07T03:53:48;100287.17;;;10.84;89.63
58662;BME280;44432;49.786;22.760;2023-09-07T03:56:18;100287.48;;;10.83;90.04
58662;BME280;44432;49.786;22.760;2023-09-07T03:58:49;100294.21;;;10.82;89.68
58662;BME280;44432;49.786;22.760;2023-09-07T04:01:20;100292.30;;;10.81;89.83
58662;BME280;44432;49.786;22.760;2023-09-07T04:03:50;100293.50;;;10.79;89.93
58662;BME280;44432;49.786;22.760;2023-09-07T04:06:21;100295.41;;;10.80;90.01
58662;BME280;44432;49.786;22.760;2023-09-07T04:08:53;100297.28;;;10.79;90.09
58662;BME280;44432;49.786;22.760;2023-09-07T04:11:23;100299.08;;;10.80;90.09
58662;BME280;44432;49.786;22.760;2023-09-07T04:13:54;100301.70;;;10.82;90.35
58662;BME280;44432;49.786;22.760;2023-09-07T04:16:25;100301.09;;;10.82;90.17
58662;BME280;44432;49.786;22.760;2023-09-07T04:18:55;100304.07;;;10.84;90.12
58662;BME280;44432;49.786;22.760;2023-09-07T04:21:26;100302.83;;;10.86;90.36
58662;BME280;44432;49.786;22.760;2023-09-07T04:23:57;100305.19;;;10.86;90.28
58662;BME280;44432;49.786;22.760;2023-09-07T04:26:27;100308.50;;;10.88;90.28
58662;BME280;44432;49.786;22.760;2023-09-07T04:28:58;100302.52;;;10.88;90.04
58662;BME280;44432;49.786;22.760;2023-09-07T04:31:29;100306.07;;;10.89;89.99
58662;BME280;44432;49.786;22.760;2023-09-07T04:34:00;100304.02;;;10.90;90.23
58662;BME280;44432;49.786;22.760;2023-09-07T04:36:32;100306.75;;;10.92;90.13
58662;BME280;44432;49.786;22.760;2023-09-07T04:39:03;100307.21;;;10.94;90.01
58662;BME280;44432;49.786;22.760;2023-09-07T04:41:34;100306.17;;;10.96;89.99
58662;BME280;44432;49.786;22.760;2023-09-07T04:44:05;100306.40;;;10.99;90.07
58662;BME280;44432;49.786;22.760;2023-09-07T04:46:36;100304.11;;;11.02;89.99
58662;BME280;44432;49.786;22.760;2023-09-07T04:49:06;100305.36;;;11.04;89.81
58662;BME280;44432;49.786;22.760;2023-09-07T04:51:37;100308.02;;;11.07;89.85
58662;BME280;44432;49.786;22.760;2023-09-07T04:54:08;100312.04;;;11.10;89.81
58662;BME280;44432;49.786;22.760;2023-09-07T04:56:38;100311.21;;;11.14;89.84
58662;BME280;44432;49.786;22.760;2023-09-07T04:59:09;100312.73;;;11.16;89.65
58662;BME280;44432;49.786;22.760;2023-09-07T05:01:40;100314.22;;;11.20;89.61
58662;BME280;44432;49.786;22.760;2023-09-07T05:04:10;100318.53;;;11.23;89.63
58662;BME280;44432;49.786;22.760;2023-09-07T05:06:41;100318.65;;;11.28;89.53
58662;BME280;44432;49.786;22.760;2023-09-07T05:09:12;100316.23;;;11.32;89.42
58662;BME280;44432;49.786;22.760;2023-09-07T05:11:43;100321.47;;;11.35;89.20
58662;BME280;44432;49.786;22.760;2023-09-07T05:14:14;100323.48;;;11.37;89.25
58662;BME280;44432;49.786;22.760;2023-09-07T05:16:45;100323.31;;;11.41;89.16
58662;BME280;44432;49.786;22.760;2023-09-07T05:19:16;100325.91;;;11.46;89.08
58662;BME280;44432;49.786;22.760;2023-09-07T05:21:46;100320.70;;;11.51;89.07
58662;BME280;44432;49.786;22.760;2023-09-07T05:24:17;100318.77;;;11.55;89.18
58662;BME280;44432;49.786;22.760;2023-09-07T05:26:49;100321.98;;;11.59;89.04
58662;BME280;44432;49.786;22.760;2023-09-07T05:29:20;100325.05;;;11.62;88.87
58662;BME280;44432;49.786;22.760;2023-09-07T05:31:52;100327.45;;;11.67;89.08
58662;BME280;44432;49.786;22.760;2023-09-07T05:34:22;100323.86;;;11.73;89.05
58662;BME280;44432;49.786;22.760;2023-09-07T05:36:53;100327.80;;;11.80;89.16
58662;BME280;44432;49.786;22.760;2023-09-07T05:39:24;100330.73;;;11.87;89.09
58662;BME280;44432;49.786;22.760;2023-09-07T05:41:54;100333.92;;;11.96;89.14
58662;BME280;44432;49.786;22.760;2023-09-07T05:44:25;100332.30;;;12.06;89.01
58662;BME280;44432;49.786;22.760;2023-09-07T05:46:56;100333.56;;;12.15;88.79
58662;BME280;44432;49.786;22.760;2023-09-07T05:49:27;100330.46;;;12.22;88.49
58662;BME280;44432;49.786;22.760;2023-09-07T05:51:58;100335.62;;;12.27;88.48
58662;BME280;44432;49.786;22.760;2023-09-07T05:54:29;100336.48;;;12.31;88.30
58662;BME280;44432;49.786;22.760;2023-09-07T05:57:00;100338.30;;;12.35;88.63
58662;BME280;44432;49.786;22.760;2023-09-07T05:59:30;100333.85;;;12.44;88.68
58662;BME280;44432;49.786;22.760;2023-09-07T06:02:01;100337.31;;;12.54;88.81
58662;BME280;44432;49.786;22.760;2023-09-07T06:04:33;100338.77;;;12.64;88.69
58662;BME280;44432;49.786;22.760;2023-09-07T06:07:05;100338.52;;;12.74;88.60
58662;BME280;44432;49.786;22.760;2023-09-07T06:09:35;100336.58;;;12.85;88.50
58662;BME280;44432;49.786;22.760;2023-09-07T06:12:07;100338.11;;;12.94;88.44
58662;BME280;44432;49.786;22.760;2023-09-07T06:14:37;100340.45;;;13.05;88.20
58662;BME280;44432;49.786;22.760;2023-09-07T06:17:08;100339.77;;;13.14;88.11
58662;BME280;44432;49.786;22.760;2023-09-07T06:19:39;100343.42;;;13.22;87.87
58662;BME280;44432;49.786;22.760;2023-09-07T06:22:10;100343.47;;;13.31;87.92
58662;BME280;44432;49.786;22.760;2023-09-07T06:24:41;100339.91;;;13.41;87.90
58662;BME280;44432;49.786;22.760;2023-09-07T06:27:11;100344.09;;;13.52;87.79
58662;BME280;44432;49.786;22.760;2023-09-07T06:29:42;100340.45;;;13.61;87.52
58662;BME280;44432;49.786;22.760;2023-09-07T06:32:13;100343.00;;;13.71;87.56
58662;BME280;44432;49.786;22.760;2023-09-07T06:34:43;100347.72;;;13.84;87.66
58662;BME280;44432;49.786;22.760;2023-09-07T06:37:14;100349.81;;;13.95;87.55
58662;BME280;44432;49.786;22.760;2023-09-07T06:39:45;100348.64;;;14.08;87.48
58662;BME280;44432;49.786;22.760;2023-09-07T06:42:16;100349.62;;;14.22;87.28
58662;BME280;44432;49.786;22.760;2023-09-07T06:44:46;100350.55;;;14.33;87.18
58662;BME280;44432;49.786;22.760;2023-09-07T06:47:17;100347.09;;;14.45;87.10
58662;BME280;44432;49.786;22.760;2023-09-07T06:49:48;100349.68;;;14.57;86.94
58662;BME280;44432;49.786;22.760;2023-09-07T06:52:18;100342.17;;;14.67;86.88
58662;BME280;44432;49.786;22.760;2023-09-07T06:54:52;100346.27;;;14.81;86.81
58662;BME280;44432;49.786;22.760;2023-09-07T06:57:23;100347.24;;;14.94;86.58
58662;BME280;44432;49.786;22.760;2023-09-07T06:59:54;100344.66;;;15.08;86.46
58662;BME280;44432;49.786;22.760;2023-09-07T07:02:25;100342.84;;;15.22;86.20
58662;BME280;44432;49.786;22.760;2023-09-07T07:04:55;100346.21;;;15.35;86.10
58662;BME280;44432;49.786;22.760;2023-09-07T07:07:28;100348.26;;;15.50;86.01
58662;BME280;44432;49.786;22.760;2023-09-07T07:09:59;100346.88;;;15.63;85.76
58662;BME280;44432;49.786;22.760;2023-09-07T07:12:30;100344.39;;;15.74;85.72
58662;BME280;44432;49.786;22.760;2023-09-07T07:15:04;100349.83;;;15.92;85.52
58662;BME280;44432;49.786;22.760;2023-09-07T07:17:36;100352.35;;;16.05;85.34
58662;BME280;44432;49.786;22.760;2023-09-07T07:20:09;100353.34;;;16.19;85.07
58662;BME280;44432;49.786;22.760;2023-09-07T07:22:40;100355.91;;;16.33;84.88
58662;BME280;44432;49.786;22.760;2023-09-07T07:25:11;100349.56;;;16.46;84.48
58662;BME280;44432;49.786;22.760;2023-09-07T07:27:42;100347.47;;;16.59;84.29
58662;BME280;44432;49.786;22.760;2023-09-07T07:30:15;100349.91;;;16.72;83.93
58662;BME280;44432;49.786;22.760;2023-09-07T07:32:45;100345.97;;;16.85;83.76
58662;BME280;44432;49.786;22.760;2023-09-07T07:35:16;100347.12;;;16.98;83.31
58662;BME280;44432;49.786;22.760;2023-09-07T07:37:47;100344.58;;;17.12;83.00
58662;BME280;44432;49.786;22.760;2023-09-07T07:40:17;100345.79;;;17.26;82.82
58662;BME280;44432;49.786;22.760;2023-09-07T07:42:50;100341.09;;;17.40;82.25
58662;BME280;44432;49.786;22.760;2023-09-07T07:45:21;100340.13;;;17.51;81.72
58662;BME280;44432;49.786;22.760;2023-09-07T07:47:52;100339.67;;;17.63;81.24
58662;BME280;44432;49.786;22.760;2023-09-07T07:50:23;100337.98;;;17.76;80.74
58662;BME280;44432;49.786;22.760;2023-09-07T07:52:54;100338.48;;;17.92;80.28
58662;BME280;44432;49.786;22.760;2023-09-07T07:55:25;100341.90;;;18.07;79.87
58662;BME280;44432;49.786;22.760;2023-09-07T07:57:55;100340.01;;;18.21;79.44
58662;BME280;44432;49.786;22.760;2023-09-07T08:00:26;100345.05;;;18.36;78.74
58662;BME280;44432;49.786;22.760;2023-09-07T08:02:57;100342.64;;;18.49;77.63
58662;BME280;44432;49.786;22.760;2023-09-07T08:05:27;100340.84;;;18.63;76.92
58662;BME280;44432;49.786;22.760;2023-09-07T08:07:58;100340.94;;;18.78;76.40
58662;BME280;44432;49.786;22.760;2023-09-07T08:10:29;100342.52;;;18.91;75.19
58662;BME280;44432;49.786;22.760;2023-09-07T08:13:04;100343.96;;;19.07;74.58
58662;BME280;44432;49.786;22.760;2023-09-07T08:15:35;100345.11;;;19.21;74.04
58662;BME280;44432;49.786;22.760;2023-09-07T08:18:06;100338.55;;;19.36;73.73
58662;BME280;44432;49.786;22.760;2023-09-07T08:20:38;100340.88;;;19.51;72.58
58662;BME280;44432;49.786;22.760;2023-09-07T08:23:10;100341.75;;;19.65;71.59
58662;BME280;44432;49.786;22.760;2023-09-07T08:25:41;100340.95;;;19.78;71.36
58662;BME280;44432;49.786;22.760;2023-09-07T08:28:15;100341.77;;;19.92;70.57
58662;BME280;44432;49.786;22.760;2023-09-07T08:30:48;100339.80;;;20.05;69.82
58662;BME280;44432;49.786;22.760;2023-09-07T08:33:18;100340.36;;;20.19;69.44
58662;BME280;44432;49.786;22.760;2023-09-07T08:35:55;100340.21;;;20.33;67.87
58662;BME280;44432;49.786;22.760;2023-09-07T08:38:26;100336.57;;;20.46;66.98
58662;BME280;44432;49.786;22.760;2023-09-07T08:41:02;100337.14;;;20.59;66.23
58662;BME280;44432;49.786;22.760;2023-09-07T08:43:39;100334.27;;;20.71;65.16
58662;BME280;44432;49.786;22.760;2023-09-07T08:46:17;100334.14;;;20.83;65.18
58662;BME280;44432;49.786;22.760;2023-09-07T08:48:50;100332.86;;;20.95;64.67
58662;BME280;44432;49.786;22.760;2023-09-07T08:51:21;100335.50;;;21.08;64.41
58662;BME280;44432;49.786;22.760;2023-09-07T08:53:52;100338.55;;;21.20;63.82
58662;BME280;44432;49.786;22.760;2023-09-07T08:56:23;100337.16;;;21.32;63.15
58662;BME280;44432;49.786;22.760;2023-09-07T08:58:54;100336.77;;;21.43;62.64
58662;BME280;44432;49.786;22.760;2023-09-07T09:01:25;100337.16;;;21.52;61.67
58662;BME280;44432;49.786;22.760;2023-09-07T09:04:00;100337.34;;;21.57;61.00
58662;BME280;44432;49.786;22.760;2023-09-07T09:06:31;100334.05;;;21.64;61.15
58662;BME280;44432;49.786;22.760;2023-09-07T09:09:02;100336.00;;;21.73;61.13
58662;BME280;44432;49.786;22.760;2023-09-07T09:11:34;100332.39;;;21.82;61.04
58662;BME280;44432;49.786;22.760;2023-09-07T09:14:06;100333.33;;;21.93;60.83
58662;BME280;44432;49.786;22.760;2023-09-07T09:16:37;100333.52;;;22.03;60.60
58662;BME280;44432;49.786;22.760;2023-09-07T09:19:07;100330.71;;;22.12;60.01
58662;BME280;44432;49.786;22.760;2023-09-07T09:21:38;100335.26;;;22.18;59.59
58662;BME280;44432;49.786;22.760;2023-09-07T09:24:11;100336.73;;;22.27;59.58
58662;BME280;44432;49.786;22.760;2023-09-07T09:26:41;100337.11;;;22.38;59.45
58662;BME280;44432;49.786;22.760;2023-09-07T09:29:12;100334.81;;;22.47;59.00
58662;BME280;44432;49.786;22.760;2023-09-07T09:31:44;100338.61;;;22.57;58.80
58662;BME280;44432;49.786;22.760;2023-09-07T09:34:18;100335.61;;;22.65;58.48
58662;BME280;44432;49.786;22.760;2023-09-07T09:36:50;100336.92;;;22.70;58.04
58662;BME280;44432;49.786;22.760;2023-09-07T09:39:24;100333.65;;;22.75;58.13
58662;BME280;44432;49.786;22.760;2023-09-07T09:41:55;100330.56;;;22.85;58.08
58662;BME280;44432;49.786;22.760;2023-09-07T09:44:26;100331.67;;;22.94;57.82
58662;BME280;44432;49.786;22.760;2023-09-07T09:46:57;100329.09;;;23.04;57.61
58662;BME280;44432;49.786;22.760;2023-09-07T09:49:30;100324.89;;;23.10;57.14
58662;BME280;44432;49.786;22.760;2023-09-07T09:52:01;100329.27;;;23.17;56.70
58662;BME280;44432;49.786;22.760;2023-09-07T09:54:35;100327.64;;;23.23;56.67
58662;BME280;44432;49.786;22.760;2023-09-07T09:57:06;100326.67;;;23.29;56.21
58662;BME280;44432;49.786;22.760;2023-09-07T09:59:37;100323.64;;;23.35;55.91
58662;BME280;44432;49.786;22.760;2023-09-07T10:02:09;100324.82;;;23.41;55.85
58662;BME280;44432;49.786;22.760;2023-09-07T10:04:40;100320.17;;;23.49;55.62
58662;BME280;44432;49.786;22.760;2023-09-07T10:07:11;100315.13;;;23.54;54.88
58662;BME280;44432;49.786;22.760;2023-09-07T10:09:42;100319.87;;;23.57;54.84
58662;BME280;44432;49.786;22.760;2023-09-07T10:12:14;100315.77;;;23.63;54.82
58662;BME280;44432;49.786;22.760;2023-09-07T10:14:45;100319.56;;;23.71;54.86
58662;BME280;44432;49.786;22.760;2023-09-07T10:17:24;100315.71;;;23.78;54.01
58662;BME280;44432;49.786;22.760;2023-09-07T10:20:05;100318.67;;;23.81;53.64
58662;BME280;44432;49.786;22.760;2023-09-07T10:22:36;100314.95;;;23.84;53.77
58662;BME280;44432;49.786;22.760;2023-09-07T10:25:07;100319.20;;;23.89;53.70
58662;BME280;44432;49.786;22.760;2023-09-07T10:27:48;100318.38;;;23.95;53.50
58662;BME280;44432;49.786;22.760;2023-09-07T10:30:20;100317.23;;;24.02;53.42
58662;BME280;44432;49.786;22.760;2023-09-07T10:32:53;100316.64;;;24.14;53.13
58662;BME280;44432;49.786;22.760;2023-09-07T10:35:24;100314.02;;;24.26;52.75
58662;BME280;44432;49.786;22.760;2023-09-07T10:37:55;100315.68;;;24.40;52.90
58662;BME280;44432;49.786;22.760;2023-09-07T10:40:26;100315.63;;;24.50;52.28
58662;BME280;44432;49.786;22.760;2023-09-07T10:43:06;100314.23;;;24.57;51.59
58662;BME280;44432;49.786;22.760;2023-09-07T10:45:37;100316.20;;;24.61;51.43
58662;BME280;44432;49.786;22.760;2023-09-07T10:48:09;100315.11;;;24.62;51.24
58662;BME280;44432;49.786;22.760;2023-09-07T10:50:48;100311.01;;;24.63;51.12
58662;BME280;44432;49.786;22.760;2023-09-07T10:53:27;100311.20;;;24.65;50.93
58662;BME280;44432;49.786;22.760;2023-09-07T10:56:02;100311.15;;;24.67;50.65
58662;BME280;44432;49.786;22.760;2023-09-07T10:58:34;100309.73;;;24.68;50.42
58662;BME280;44432;49.786;22.760;2023-09-07T11:01:08;100304.45;;;24.67;50.10
58662;BME280;44432;49.786;22.760;2023-09-07T11:03:39;100305.41;;;24.67;50.15
58662;BME280;44432;49.786;22.760;2023-09-07T11:06:12;100304.61;;;24.65;49.83
58662;BME280;44432;49.786;22.760;2023-09-07T11:08:43;100306.39;;;24.66;49.97
58662;BME280;44432;49.786;22.760;2023-09-07T11:11:14;100300.98;;;24.67;49.70
58662;BME280;44432;49.786;22.760;2023-09-07T11:13:45;100303.51;;;24.70;49.90
58662;BME280;44432;49.786;22.760;2023-09-07T11:16:16;100296.20;;;24.79;49.63
58662;BME280;44432;49.786;22.760;2023-09-07T11:18:47;100293.48;;;24.88;49.50
58662;BME280;44432;49.786;22.760;2023-09-07T11:21:20;100293.60;;;24.94;49.02
58662;BME280;44432;49.786;22.760;2023-09-07T11:23:52;100292.12;;;25.02;48.81
58662;BME280;44432;49.786;22.760;2023-09-07T11:26:22;100290.01;;;25.10;48.47
58662;BME280;44432;49.786;22.760;2023-09-07T11:28:53;100292.01;;;25.17;48.32
58662;BME280;44432;49.786;22.760;2023-09-07T11:31:25;100288.71;;;25.23;48.38
58662;BME280;44432;49.786;22.760;2023-09-07T11:33:55;100294.09;;;25.26;47.75
58662;BME280;44432;49.786;22.760;2023-09-07T11:36:26;100286.06;;;25.22;47.62
58662;BME280;44432;49.786;22.760;2023-09-07T11:38:57;100284.43;;;25.23;48.01
58662;BME280;44432;49.786;22.760;2023-09-07T11:41:28;100291.33;;;25.26;47.74
58662;BME280;44432;49.786;22.760;2023-09-07T11:43:59;100287.96;;;25.27;47.51
58662;BME280;44432;49.786;22.760;2023-09-07T11:46:29;100285.48;;;25.27;47.42
58662;BME280;44432;49.786;22.760;2023-09-07T11:49:00;100288.11;;;25.33;47.50
58662;BME280;44432;49.786;22.760;2023-09-07T11:51:31;100290.12;;;25.39;47.21
58662;BME280;44432;49.786;22.760;2023-09-07T11:54:03;100283.86;;;25.43;47.19
58662;BME280;44432;49.786;22.760;2023-09-07T11:56:33;100279.14;;;25.50;47.03
58662;BME280;44432;49.786;22.760;2023-09-07T11:59:09;100276.55;;;25.54;46.49
58662;BME280;44432;49.786;22.760;2023-09-07T12:01:39;100275.56;;;25.55;46.42
58662;BME280;44432;49.786;22.760;2023-09-07T12:04:10;100277.06;;;25.57;46.19
58662;BME280;44432;49.786;22.760;2023-09-07T12:06:41;100273.98;;;25.56;46.35
58662;BME280;44432;49.786;22.760;2023-09-07T12:09:12;100278.09;;;25.57;46.15
58662;BME280;44432;49.786;22.760;2023-09-07T12:11:44;100270.16;;;25.55;46.00
58662;BME280;44432;49.786;22.760;2023-09-07T12:14:15;100272.27;;;25.55;46.16
58662;BME280;44432;49.786;22.760;2023-09-07T12:16:45;100264.09;;;25.56;45.70
58662;BME280;44432;49.786;22.760;2023-09-07T12:19:16;100267.88;;;25.56;45.77
58662;BME280;44432;49.786;22.760;2023-09-07T12:21:47;100269.55;;;25.56;45.71
58662;BME280;44432;49.786;22.760;2023-09-07T12:24:18;100268.91;;;25.50;45.87
58662;BME280;44432;49.786;22.760;2023-09-07T12:26:48;100268.54;;;25.50;45.85
58662;BME280;44432;49.786;22.760;2023-09-07T12:29:19;100269.25;;;25.49;45.70
58662;BME280;44432;49.786;22.760;2023-09-07T12:31:50;100268.59;;;25.44;45.60
58662;BME280;44432;49.786;22.760;2023-09-07T12:34:21;100267.32;;;25.42;45.80
58662;BME280;44432;49.786;22.760;2023-09-07T12:36:51;100261.85;;;25.43;45.98
58662;BME280;44432;49.786;22.760;2023-09-07T12:39:22;100260.38;;;25.44;46.21
58662;BME280;44432;49.786;22.760;2023-09-07T12:41:53;100256.64;;;25.46;45.81
58662;BME280;44432;49.786;22.760;2023-09-07T12:44:24;100255.50;;;25.46;45.57
58662;BME280;44432;49.786;22.760;2023-09-07T12:46:54;100249.83;;;25.44;45.27
58662;BME280;44432;49.786;22.760;2023-09-07T12:49:25;100252.15;;;25.45;45.37
58662;BME280;44432;49.786;22.760;2023-09-07T12:51:56;100249.45;;;25.46;45.25
58662;BME280;44432;49.786;22.760;2023-09-07T12:54:26;100246.88;;;25.47;45.21
58662;BME280;44432;49.786;22.760;2023-09-07T12:56:57;100243.73;;;25.48;44.78
58662;BME280;44432;49.786;22.760;2023-09-07T12:59:28;100240.77;;;25.47;44.52
58662;BME280;44432;49.786;22.760;2023-09-07T13:01:59;100240.35;;;25.46;44.66